Time;durP1;ratioP1;P1;durP2;ratioP2;P2;SDS_P1;SDS_P2;PMS_P1;PMS_P2;Temp;Humidity;BMP_temperature;BMP_pressure;BME280_temperature;BME280_humidity;BME280_pressure;Samples;Min_cycle;Max_cycle;Signal;HPM_P1;HPM_P2
2024/04/22 00:01:55;;;;;;;8.18;4.60;;;;;;;;;;5326013;26;20001;-65
2024/04/22 00:04:20;;;;;;;9.38;5.18;;;;;;;;;;5347157;26;20059;-65
2024/04/22 00:06:45;;;;;;;9.57;4.65;;;;;;;;;;5348035;26;20337;-65
2024/04/22 00:09:11;;;;;;;11.32;4.60;;;;;;;;;;5348525;26;20003;-65
2024/04/22 00:11:36;;;;;;;9.25;4.75;;;;;;;;;;5347946;26;20457;-65
2024/04/22 00:14:02;;;;;;;8.98;4.55;;;;;;;;;;5348451;26;20025;-65
2024/04/22 00:16:27;;;;;;;7.15;4.20;;;;;;;;;;5348432;26;20007;-65
2024/04/22 00:18:52;;;;;;;7.22;5.00;;;;;;;;;;5348599;26;19996;-65
2024/04/22 00:21:18;;;;;;;8.75;4.60;;;;;;;;;;5348455;26;20516;-65
2024/04/22 00:23:43;;;;;;;8.20;4.82;;;;;;;;;;5348354;26;20007;-65
2024/04/22 00:26:08;;;;;;;7.00;4.60;;;;;;;;;;5347804;26;20032;-65
2024/04/22 00:28:34;;;;;;;9.32;4.70;;;;;;;;;;5348555;26;20100;-65
2024/04/22 00:30:59;;;;;;;9.70;5.50;;;;;;;;;;5348374;26;20021;-65
2024/04/22 00:33:24;;;;;;;9.75;4.68;;;;;;;;;;5348425;26;20004;-65
2024/04/22 00:35:57;;;;;;;10.93;5.80;;;;;;;;;;5347548;26;19993;-65
2024/04/22 00:38:22;;;;;;;12.48;5.00;;;;;;;;;;5348117;26;20008;-65
2024/04/22 00:40:47;;;;;;;8.50;4.45;;;;;;;;;;5348245;26;19997;-65
2024/04/22 00:43:13;;;;;;;9.40;5.30;;;;;;;;;;5348113;26;20006;-65
2024/04/22 00:45:38;;;;;;;8.93;5.03;;;;;;;;;;5418665;21;20320;-65
2024/04/22 00:48:04;;;;;;;9.68;4.68;;;;;;;;;;5313743;26;20006;-64
2024/04/22 00:50:30;;;;;;;8.88;4.97;;;;;;;;;;5313323;26;20001;-65
2024/04/22 00:52:56;;;;;;;11.93;6.65;;;;;;;;;;5311963;27;20022;-65
2024/04/22 00:55:22;;;;;;;9.65;5.95;;;;;;;;;;5352057;26;20000;-65
2024/04/22 00:57:48;;;;;;;10.07;5.35;;;;;;;;;;5311183;27;19997;-65
2024/04/22 01:00:13;;;;;;;10.27;5.43;;;;;;;;;;5313637;26;19997;-64
2024/04/22 01:02:38;;;;;;;8.93;4.78;;;;;;;;;;5313543;26;20009;-65
2024/04/22 01:05:04;;;;;;;8.85;5.13;;;;;;;;;;5313319;26;20465;-64
2024/04/22 01:07:30;;;;;;;13.38;5.57;;;;;;;;;;5313189;26;20002;-65
2024/04/22 01:09:55;;;;;;;14.82;5.78;;;;;;;;;;5312210;26;19997;-64
2024/04/22 01:12:20;;;;;;;11.07;5.25;;;;;;;;;;5313255;26;19994;-65
2024/04/22 01:14:46;;;;;;;9.68;5.07;;;;;;;;;;5313176;26;20029;-64
2024/04/22 01:17:11;;;;;;;11.50;4.70;;;;;;;;;;5313299;26;20465;-65
2024/04/22 01:19:36;;;;;;;10.30;5.88;;;;;;;;;;5313227;26;20033;-65
2024/04/22 01:22:02;;;;;;;10.30;5.38;;;;;;;;;;5312909;27;20001;-65
2024/04/22 01:24:27;;;;;;;12.00;5.55;;;;;;;;;;5313123;26;20002;-64
2024/04/22 01:26:53;;;;;;;9.15;5.03;;;;;;;;;;5313141;26;20028;-65
2024/04/22 01:29:18;;;;;;;9.27;5.72;;;;;;;;;;5310815;27;19998;-64
2024/04/22 01:31:43;;;;;;;10.23;5.47;;;;;;;;;;5313295;26;20451;-65
2024/04/22 01:34:09;;;;;;;10.00;5.20;;;;;;;;;;5305644;26;19997;-64
2024/04/22 01:36:40;;;;;;;9.77;4.95;;;;;;;;;;5286705;26;19998;-65
2024/04/22 01:39:05;;;;;;;9.02;4.80;;;;;;;;;;5297241;26;20001;-65
2024/04/22 01:41:31;;;;;;;11.38;5.55;;;;;;;;;;5312054;26;20001;-64
2024/04/22 01:43:56;;;;;;;11.07;5.55;;;;;;;;;;5312463;26;20055;-65
2024/04/22 01:46:21;;;;;;;8.93;4.65;;;;;;;;;;5340139;26;20453;-65
2024/04/22 01:48:47;;;;;;;12.70;6.10;;;;;;;;;;5308781;26;19997;-64
2024/04/22 01:51:12;;;;;;;7.25;4.15;;;;;;;;;;5280193;26;20010;-65
2024/04/22 01:53:37;;;;;;;6.70;3.92;;;;;;;;;;5278839;27;19994;-64
2024/04/22 01:56:02;;;;;;;11.38;4.57;;;;;;;;;;5277577;27;20005;-65
2024/04/22 01:58:28;;;;;;;7.15;5.00;;;;;;;;;;5278330;27;20051;-65
2024/04/22 02:00:54;;;;;;;12.00;5.43;;;;;;;;;;5278495;27;20404;-64
2024/04/22 02:03:19;;;;;;;7.25;5.07;;;;;;;;;;5281298;27;20460;-64
2024/04/22 02:05:44;;;;;;;8.25;4.38;;;;;;;;;;5312039;26;20035;-65
2024/04/22 02:08:10;;;;;;;9.70;5.07;;;;;;;;;;5314908;27;19993;-64
2024/04/22 02:10:35;;;;;;;10.88;4.40;;;;;;;;;;5315775;27;19998;-65
2024/04/22 02:13:01;;;;;;;10.07;4.97;;;;;;;;;;5315640;26;20511;-64
2024/04/22 02:15:26;;;;;;;12.95;5.30;;;;;;;;;;5315556;26;20008;-63
2024/04/22 02:17:51;;;;;;;12.38;5.45;;;;;;;;;;5314768;26;19997;-65
2024/04/22 02:20:17;;;;;;;10.45;5.45;;;;;;;;;;5315504;26;19994;-65
2024/04/22 02:22:42;;;;;;;8.13;4.57;;;;;;;;;;5315067;26;20418;-64
2024/04/22 02:25:07;;;;;;;9.00;5.10;;;;;;;;;;5304794;26;20010;-65
2024/04/22 02:27:32;;;;;;;10.38;5.47;;;;;;;;;;5279270;27;20009;-64
2024/04/22 02:29:58;;;;;;;7.10;4.47;;;;;;;;;;5291012;26;19994;-64
2024/04/22 02:32:23;;;;;;;9.07;4.20;;;;;;;;;;5285568;27;20009;-64
2024/04/22 02:34:50;;;;;;;11.32;4.60;;;;;;;;;;5280737;27;19999;-64
2024/04/22 02:37:15;;;;;;;8.93;4.55;;;;;;;;;;5301041;26;19998;-65
2024/04/22 02:39:41;;;;;;;6.55;3.92;;;;;;;;;;5284277;26;20013;-64
2024/04/22 02:42:06;;;;;;;7.38;4.25;;;;;;;;;;5280253;27;20002;-64
2024/04/22 02:44:31;;;;;;;9.32;4.43;;;;;;;;;;5295691;26;20517;-64
2024/04/22 02:46:57;;;;;;;8.75;4.75;;;;;;;;;;5314731;26;19993;-64
2024/04/22 02:49:22;;;;;;;6.20;3.50;;;;;;;;;;5314641;26;19994;-64
2024/04/22 02:51:47;;;;;;;6.97;4.22;;;;;;;;;;5314288;26;19998;-64
2024/04/22 02:54:12;;;;;;;7.53;4.13;;;;;;;;;;5314133;26;20001;-64
2024/04/22 02:56:38;;;;;;;7.95;3.97;;;;;;;;;;5314101;26;20470;-64
2024/04/22 02:59:03;;;;;;;6.68;4.07;;;;;;;;;;5311797;26;20002;-64
2024/04/22 03:01:32;;;;;;;11.60;4.75;;;;;;;;;;5314822;26;20009;-64
2024/04/22 03:03:57;;;;;;;8.15;4.10;;;;;;;;;;5314562;26;19998;-64
2024/04/22 03:06:23;;;;;;;7.78;3.78;;;;;;;;;;5298346;26;20013;-64
2024/04/22 03:08:50;;;;;;;9.00;4.75;;;;;;;;;;5280211;27;20474;-64
2024/04/22 03:11:15;;;;;;;9.05;4.50;;;;;;;;;;5279551;26;20006;-64
2024/04/22 03:13:40;;;;;;;7.85;4.60;;;;;;;;;;5280441;27;20010;-64
2024/04/22 03:16:05;;;;;;;8.93;4.78;;;;;;;;;;5279955;27;20009;-64
2024/04/22 03:18:31;;;;;;;9.20;4.55;;;;;;;;;;5312879;26;20009;-61
2024/04/22 03:20:56;;;;;;;7.35;4.07;;;;;;;;;;5286636;26;19998;-64
2024/04/22 03:23:21;;;;;;;8.00;3.90;;;;;;;;;;5280278;27;20000;-64
2024/04/22 03:25:47;;;;;;;7.43;4.72;;;;;;;;;;5295590;26;20331;-64
2024/04/22 03:28:12;;;;;;;7.70;4.07;;;;;;;;;;5279931;27;20069;-64
2024/04/22 03:30:37;;;;;;;9.65;4.80;;;;;;;;;;5281887;26;20010;-64
2024/04/22 03:33:03;;;;;;;9.02;4.90;;;;;;;;;;5313334;26;20008;-64
2024/04/22 03:35:28;;;;;;;11.25;3.88;;;;;;;;;;5308336;26;20013;-64
2024/04/22 03:37:53;;;;;;;7.40;4.53;;;;;;;;;;5314083;26;20010;-64
2024/04/22 03:40:18;;;;;;;10.57;4.38;;;;;;;;;;5314596;26;20002;-64
2024/04/22 03:42:44;;;;;;;5.78;3.80;;;;;;;;;;5314019;26;20012;-64
2024/04/22 03:45:09;;;;;;;6.40;3.70;;;;;;;;;;5313146;26;20009;-64
2024/04/22 03:50:18;;;;;;;6.72;4.25;;;;;;;;;;5305979;26;20420;-65
2024/04/22 03:52:43;;;;;;;7.22;5.20;;;;;;;;;;5314141;26;20005;-64
2024/04/22 03:55:08;;;;;;;8.35;3.80;;;;;;;;;;5299370;26;20076;-64
2024/04/22 03:57:34;;;;;;;9.80;4.07;;;;;;;;;;5307707;26;20016;-63
2024/04/22 03:59:59;;;;;;;9.10;4.50;;;;;;;;;;5279964;27;19999;-64
2024/04/22 04:02:24;;;;;;;8.40;3.83;;;;;;;;;;5281149;27;20026;-64
2024/04/22 04:04:50;;;;;;;5.45;3.45;;;;;;;;;;5286914;26;20368;-64
2024/04/22 04:07:15;;;;;;;5.57;3.58;;;;;;;;;;5279331;27;19998;-65
2024/04/22 04:09:42;;;;;;;7.22;3.85;;;;;;;;;;5288549;26;20007;-64
2024/04/22 04:12:07;;;;;;;9.27;3.78;;;;;;;;;;5277680;27;20005;-64
2024/04/22 04:14:33;;;;;;;5.65;3.58;;;;;;;;;;5280728;27;19998;-64
2024/04/22 04:16:58;;;;;;;6.63;3.50;;;;;;;;;;5306313;26;19997;-65
2024/04/22 04:19:25;;;;;;;7.38;4.35;;;;;;;;;;5312838;26;20471;-64
2024/04/22 04:21:51;;;;;;;6.80;3.50;;;;;;;;;;5313786;26;20009;-64
2024/04/22 04:24:17;;;;;;;6.88;3.80;;;;;;;;;;5311124;26;20001;-64
2024/04/22 04:26:43;;;;;;;7.35;4.03;;;;;;;;;;5305692;26;20368;-64
2024/04/22 04:29:08;;;;;;;6.57;3.58;;;;;;;;;;5312212;26;20012;-64
2024/04/22 04:31:33;;;;;;;6.47;3.63;;;;;;;;;;5301356;26;20088;-64
2024/04/22 04:33:58;;;;;;;7.13;3.42;;;;;;;;;;5308480;26;20099;-64
2024/04/22 04:36:24;;;;;;;6.35;3.30;;;;;;;;;;5305981;27;20004;-64
2024/04/22 04:38:49;;;;;;;7.25;3.47;;;;;;;;;;5312725;26;20041;-64
2024/04/22 04:41:14;;;;;;;5.63;3.70;;;;;;;;;;5292291;26;20471;-64
2024/04/22 04:43:39;;;;;;;5.65;3.40;;;;;;;;;;5313188;26;20012;-64
2024/04/22 04:46:05;;;;;;;6.55;3.45;;;;;;;;;;5302466;26;19995;-64
2024/04/22 04:48:30;;;;;;;4.88;3.00;;;;;;;;;;5310931;27;20410;-64
2024/04/22 04:50:55;;;;;;;7.10;3.30;;;;;;;;;;5313393;26;20434;-65
2024/04/22 04:53:21;;;;;;;5.43;3.22;;;;;;;;;;5311186;27;20008;-64
2024/04/22 04:55:47;;;;;;;5.85;3.67;;;;;;;;;;5312502;26;20001;-64
2024/04/22 04:58:12;;;;;;;6.82;3.92;;;;;;;;;;5312930;26;20072;-64
2024/04/22 05:00:39;;;;;;;10.57;3.65;;;;;;;;;;5312698;26;20001;-64
2024/04/22 05:03:04;;;;;;;6.18;3.63;;;;;;;;;;5313306;26;20001;-64
2024/04/22 05:05:29;;;;;;;7.22;3.50;;;;;;;;;;5312378;26;20071;-65
2024/04/22 05:07:55;;;;;;;7.45;3.78;;;;;;;;;;5312962;26;19994;-64
2024/04/22 05:10:21;;;;;;;6.60;4.10;;;;;;;;;;5307868;26;20009;-64
2024/04/22 05:12:48;;;;;;;6.18;3.42;;;;;;;;;;5309300;26;20025;-64
2024/04/22 05:15:13;;;;;;;9.80;4.10;;;;;;;;;;5287424;26;19991;-64
2024/04/22 05:17:38;;;;;;;6.82;3.20;;;;;;;;;;5306433;26;19993;-63
2024/04/22 05:20:04;;;;;;;4.75;2.95;;;;;;;;;;5312393;26;20010;-64
2024/04/22 05:22:29;;;;;;;5.85;2.78;;;;;;;;;;5313023;26;19989;-65
2024/04/22 05:24:55;;;;;;;5.35;3.50;;;;;;;;;;5312491;26;19997;-64
2024/04/22 05:27:20;;;;;;;7.10;3.10;;;;;;;;;;5312434;26;20004;-65
2024/04/22 05:29:45;;;;;;;6.07;2.80;;;;;;;;;;5312258;26;19997;-64
2024/04/22 05:32:10;;;;;;;4.53;3.10;;;;;;;;;;5311916;26;20008;-64
2024/04/22 05:37:20;;;;;;;4.38;3.05;;;;;;;;;;5300658;26;20482;-63
2024/04/22 05:39:45;;;;;;;6.22;2.97;;;;;;;;;;5298486;26;20003;-64
2024/04/22 05:42:10;;;;;;;5.47;3.20;;;;;;;;;;5297058;26;20041;-64
2024/04/22 05:44:35;;;;;;;6.47;3.30;;;;;;;;;;5312537;26;20009;-64
2024/04/22 05:47:01;;;;;;;3.88;2.70;;;;;;;;;;5303489;26;20083;-64
2024/04/22 05:49:27;;;;;;;6.78;2.95;;;;;;;;;;5287571;26;20037;-64
2024/04/22 05:51:52;;;;;;;5.45;3.45;;;;;;;;;;5301223;26;20363;-64
2024/04/22 05:54:18;;;;;;;4.32;3.05;;;;;;;;;;5308786;26;20013;-64
2024/04/22 05:56:43;;;;;;;10.40;3.05;;;;;;;;;;5309466;26;20371;-65
2024/04/22 05:59:12;;;;;;;7.53;3.38;;;;;;;;;;5311771;26;20005;-64
2024/04/22 06:01:38;;;;;;;4.93;2.92;;;;;;;;;;5308646;26;19994;-65
2024/04/22 06:04:04;;;;;;;5.47;2.47;;;;;;;;;;5312230;26;20400;-65
2024/04/22 06:06:36;;;;;;;6.55;3.17;;;;;;;;;;5312131;26;20005;-64
2024/04/22 06:09:14;;;;;;;6.03;3.25;;;;;;;;;;5309995;26;20016;-65
2024/04/22 06:11:39;;;;;;;4.65;3.08;;;;;;;;;;5309727;26;20017;-65
2024/04/22 06:14:05;;;;;;;6.55;3.15;;;;;;;;;;5311708;26;20072;-65
2024/04/22 06:16:31;;;;;;;8.82;3.30;;;;;;;;;;5309380;26;20013;-65
2024/04/22 06:18:57;;;;;;;9.18;3.72;;;;;;;;;;5310192;26;19994;-65
2024/04/22 06:21:25;;;;;;;7.95;2.90;;;;;;;;;;5312181;26;19998;-65
2024/04/22 06:23:51;;;;;;;6.60;3.38;;;;;;;;;;5311425;26;20001;-65
2024/04/22 06:26:17;;;;;;;9.38;3.30;;;;;;;;;;5308841;26;20026;-65
2024/04/22 06:28:42;;;;;;;6.25;3.70;;;;;;;;;;5311842;26;20009;-65
2024/04/22 06:31:07;;;;;;;7.35;2.47;;;;;;;;;;5309921;26;20350;-65
2024/04/22 06:33:33;;;;;;;5.68;2.78;;;;;;;;;;5311776;26;20351;-65
2024/04/22 06:35:59;;;;;;;4.45;2.75;;;;;;;;;;5311602;26;20012;-65
2024/04/22 06:38:25;;;;;;;7.15;3.30;;;;;;;;;;5296097;26;20073;-65
2024/04/22 06:40:50;;;;;;;6.97;3.13;;;;;;;;;;5310414;26;20004;-62
2024/04/22 06:43:16;;;;;;;6.95;2.80;;;;;;;;;;5301477;26;19997;-64
2024/04/22 06:45:45;;;;;;;5.07;2.85;;;;;;;;;;5322086;21;20034;-63
2024/04/22 06:48:10;;;;;;;5.93;3.30;;;;;;;;;;5302171;27;19994;-64
2024/04/22 06:50:35;;;;;;;6.80;3.10;;;;;;;;;;5291741;27;20016;-66
2024/04/22 06:53:01;;;;;;;7.00;3.70;;;;;;;;;;5285816;27;20466;-65
2024/04/22 06:55:26;;;;;;;6.03;3.42;;;;;;;;;;5287769;27;20002;-65
2024/04/22 06:57:51;;;;;;;6.25;3.20;;;;;;;;;;5270679;27;20010;-65
2024/04/22 07:00:17;;;;;;;6.60;3.63;;;;;;;;;;5273555;27;20079;-65
2024/04/22 07:02:42;;;;;;;6.82;3.30;;;;;;;;;;5266418;27;19998;-65
2024/04/22 07:05:07;;;;;;;7.43;2.95;;;;;;;;;;5260389;27;19999;-67
2024/04/22 07:07:33;;;;;;;5.65;3.10;;;;;;;;;;5262736;27;20017;-66
2024/04/22 07:09:58;;;;;;;4.45;3.17;;;;;;;;;;5256314;27;20009;-65
2024/04/22 07:12:24;;;;;;;5.10;3.45;;;;;;;;;;5273950;27;20014;-66
2024/04/22 07:14:49;;;;;;;5.10;2.67;;;;;;;;;;5268524;27;19998;-65
2024/04/22 07:17:14;;;;;;;4.50;2.70;;;;;;;;;;5265530;27;20010;-64
2024/04/22 07:19:40;;;;;;;5.93;3.55;;;;;;;;;;5284172;26;20437;-64
2024/04/22 07:22:05;;;;;;;4.57;2.83;;;;;;;;;;5269559;27;20364;-64
2024/04/22 07:24:31;;;;;;;6.78;3.42;;;;;;;;;;5263065;27;20013;-63
2024/04/22 07:26:56;;;;;;;5.43;2.92;;;;;;;;;;5254819;27;20077;-64
2024/04/22 07:29:22;;;;;;;7.70;3.47;;;;;;;;;;5250709;27;20014;-64
2024/04/22 07:31:48;;;;;;;7.80;3.08;;;;;;;;;;5285722;27;20003;-67
2024/04/22 07:34:14;;;;;;;6.55;2.88;;;;;;;;;;5263573;27;20006;-65
2024/04/22 07:36:45;;;;;;;5.30;3.08;;;;;;;;;;5268803;27;20003;-66
2024/04/22 07:39:14;;;;;;;4.60;2.67;;;;;;;;;;5275403;27;20042;-65
2024/04/22 07:41:39;;;;;;;5.10;3.38;;;;;;;;;;5276211;27;20348;-67
2024/04/22 07:44:05;;;;;;;6.90;3.38;;;;;;;;;;5264631;27;19998;-68
2024/04/22 07:46:30;;;;;;;7.25;3.20;;;;;;;;;;5272754;27;20046;-65
2024/04/22 07:48:56;;;;;;;5.00;2.80;;;;;;;;;;5266087;27;20629;-63
2024/04/22 07:51:21;;;;;;;5.00;3.03;;;;;;;;;;5262933;27;20031;-65
2024/04/22 07:53:47;;;;;;;5.40;3.40;;;;;;;;;;5275314;27;20034;-65
2024/04/22 07:56:12;;;;;;;7.30;3.55;;;;;;;;;;5268519;27;20088;-64
2024/04/22 07:58:38;;;;;;;4.93;3.22;;;;;;;;;;5261438;27;19999;-65
2024/04/22 08:01:04;;;;;;;7.32;3.65;;;;;;;;;;5268514;27;20030;-64
2024/04/22 08:03:29;;;;;;;3.92;2.60;;;;;;;;;;5257218;27;19998;-63
2024/04/22 08:05:55;;;;;;;6.07;3.28;;;;;;;;;;5264743;27;20002;-64
2024/04/22 08:08:21;;;;;;;5.80;3.08;;;;;;;;;;5264430;27;20016;-64
2024/04/22 08:10:46;;;;;;;3.67;2.65;;;;;;;;;;5275872;27;20006;-64
2024/04/22 08:13:12;;;;;;;7.40;3.40;;;;;;;;;;5277212;27;22815;-66
2024/04/22 08:15:37;;;;;;;4.70;2.72;;;;;;;;;;5270386;27;20079;-64
2024/04/22 08:18:02;;;;;;;6.10;2.92;;;;;;;;;;5271831;27;19999;-65
2024/04/22 08:20:27;;;;;;;7.40;2.90;;;;;;;;;;5276947;27;20010;-64
2024/04/22 08:22:53;;;;;;;8.30;3.58;;;;;;;;;;5277190;27;20093;-65
2024/04/22 08:25:18;;;;;;;4.38;3.08;;;;;;;;;;5274167;27;20002;-64
2024/04/22 08:27:44;;;;;;;3.95;2.83;;;;;;;;;;5276287;27;20013;-63
2024/04/22 08:30:09;;;;;;;4.45;2.45;;;;;;;;;;5276182;27;20006;-63
2024/04/22 08:32:35;;;;;;;5.50;2.85;;;;;;;;;;5278682;27;20014;-64
2024/04/22 08:35:01;;;;;;;5.30;3.00;;;;;;;;;;5278852;27;20026;-63
2024/04/22 08:37:26;;;;;;;5.57;2.55;;;;;;;;;;5275941;27;20453;-63
2024/04/22 08:39:52;;;;;;;6.47;3.50;;;;;;;;;;5270765;27;19998;-63
2024/04/22 08:42:19;;;;;;;4.80;2.53;;;;;;;;;;5276504;27;20002;-63
2024/04/22 08:44:45;;;;;;;4.95;2.83;;;;;;;;;;5263368;27;19999;-63
2024/04/22 08:47:10;;;;;;;3.88;2.45;;;;;;;;;;5276436;27;20010;-63
2024/04/22 08:49:35;;;;;;;3.58;2.50;;;;;;;;;;5278738;27;20013;-63
2024/04/22 08:52:02;;;;;;;6.68;2.58;;;;;;;;;;5278754;27;19994;-64
2024/04/22 08:54:27;;;;;;;4.47;2.85;;;;;;;;;;5278077;27;20002;-64
2024/04/22 08:56:53;;;;;;;5.72;2.55;;;;;;;;;;5278672;27;20085;-64
2024/04/22 08:59:19;;;;;;;4.18;2.75;;;;;;;;;;5278727;27;20455;-64
2024/04/22 09:01:44;;;;;;;5.53;2.33;;;;;;;;;;5278508;27;19998;-64
2024/04/22 09:04:10;;;;;;;3.58;2.67;;;;;;;;;;5278508;27;20080;-64
2024/04/22 09:06:35;;;;;;;5.18;2.58;;;;;;;;;;5275625;27;19998;-63
2024/04/22 09:09:00;;;;;;;5.00;2.65;;;;;;;;;;5265737;27;20013;-64
2024/04/22 09:11:28;;;;;;;4.90;2.90;;;;;;;;;;5271406;27;20009;-65
2024/04/22 09:14:00;;;;;;;5.07;2.58;;;;;;;;;;5287166;26;20366;-64
2024/04/22 09:16:25;;;;;;;9.68;3.38;;;;;;;;;;5284958;26;20018;-64
2024/04/22 09:18:51;;;;;;;5.95;2.30;;;;;;;;;;5269754;27;19999;-64
2024/04/22 09:21:16;;;;;;;3.92;2.95;;;;;;;;;;5278522;27;20006;-64
2024/04/22 09:23:42;;;;;;;5.18;3.03;;;;;;;;;;5267595;27;20009;-64
2024/04/22 09:26:07;;;;;;;5.15;2.90;;;;;;;;;;5267501;27;20009;-64
2024/04/22 09:28:37;;;;;;;6.03;3.08;;;;;;;;;;5285105;27;20092;-64
2024/04/22 09:31:03;;;;;;;5.18;3.15;;;;;;;;;;5258522;27;20063;-64
2024/04/22 09:33:33;;;;;;;3.75;2.53;;;;;;;;;;5263516;27;20021;-64
2024/04/22 09:35:58;;;;;;;8.75;2.95;;;;;;;;;;5269208;27;19994;-64
2024/04/22 09:38:24;;;;;;;5.40;2.63;;;;;;;;;;5268787;27;20340;-64
2024/04/22 09:40:50;;;;;;;4.43;2.65;;;;;;;;;;5267159;27;20484;-64
2024/04/22 09:43:16;;;;;;;4.05;2.30;;;;;;;;;;5277959;27;20009;-64
2024/04/22 09:45:44;;;;;;;3.95;2.65;;;;;;;;;;5246705;27;20015;-64
2024/04/22 09:48:10;;;;;;;4.95;3.47;;;;;;;;;;5255783;27;20479;-64
2024/04/22 09:50:36;;;;;;;4.28;2.85;;;;;;;;;;5271707;27;20006;-64
2024/04/22 09:53:04;;;;;;;3.38;1.95;;;;;;;;;;5243606;27;19998;-65
2024/04/22 09:55:30;;;;;;;7.50;2.28;;;;;;;;;;5260760;27;20014;-64
2024/04/22 09:57:59;;;;;;;6.10;2.53;;;;;;;;;;5261570;27;20007;-64
2024/04/22 10:00:24;;;;;;;3.60;2.38;;;;;;;;;;5275122;27;20400;-64
2024/04/22 10:02:53;;;;;;;7.03;2.97;;;;;;;;;;5290957;27;20015;-64
2024/04/22 10:05:21;;;;;;;5.65;2.70;;;;;;;;;;5244150;27;20003;-64
2024/04/22 10:07:48;;;;;;;4.18;2.40;;;;;;;;;;5243912;27;20007;-63
2024/04/22 10:10:13;;;;;;;5.82;2.28;;;;;;;;;;5277557;27;20477;-63
2024/04/22 10:12:38;;;;;;;5.03;2.38;;;;;;;;;;5304551;27;20009;-63
2024/04/22 10:15:11;;;;;;;4.15;2.67;;;;;;;;;;5250851;27;20306;-63
2024/04/22 10:17:36;;;;;;;5.43;2.20;;;;;;;;;;5250704;27;19998;-63
2024/04/22 10:20:03;;;;;;;4.90;2.70;;;;;;;;;;5275550;27;20013;-63
2024/04/22 10:22:36;;;;;;;6.88;2.42;;;;;;;;;;5277260;27;20002;-64
2024/04/22 10:25:03;;;;;;;7.50;2.53;;;;;;;;;;5274447;27;20013;-64
2024/04/22 10:27:29;;;;;;;4.30;2.25;;;;;;;;;;5287523;27;20002;-64
2024/04/22 10:29:54;;;;;;;5.38;2.50;;;;;;;;;;5304930;26;20013;-64
2024/04/22 10:32:19;;;;;;;4.20;2.00;;;;;;;;;;5288610;27;20460;-63
2024/04/22 10:34:45;;;;;;;6.28;2.50;;;;;;;;;;5279272;27;19999;-64
2024/04/22 10:37:10;;;;;;;6.25;1.95;;;;;;;;;;5280376;27;20002;-64
2024/04/22 10:39:36;;;;;;;5.68;2.33;;;;;;;;;;5279690;27;20002;-63
2024/04/22 10:42:02;;;;;;;6.20;2.35;;;;;;;;;;5277212;27;19998;-64
2024/04/22 10:44:27;;;;;;;3.58;2.45;;;;;;;;;;5278961;27;20002;-65
2024/04/22 10:46:54;;;;;;;3.53;2.22;;;;;;;;;;5270725;27;20441;-64
2024/04/22 10:49:19;;;;;;;4.38;2.42;;;;;;;;;;5280824;27;20362;-63
2024/04/22 10:51:44;;;;;;;5.70;2.42;;;;;;;;;;5279157;27;19995;-63
2024/04/22 10:54:09;;;;;;;3.85;2.13;;;;;;;;;;5279738;27;20002;-64
2024/04/22 10:56:35;;;;;;;2.75;1.95;;;;;;;;;;5280457;27;20479;-63
2024/04/22 10:59:01;;;;;;;2.17;1.50;;;;;;;;;;5280233;27;19994;-63
2024/04/22 11:01:26;;;;;;;3.30;1.92;;;;;;;;;;5272564;27;20469;-67
2024/04/22 11:03:52;;;;;;;3.80;2.20;;;;;;;;;;5245208;27;20035;-64
2024/04/22 11:06:17;;;;;;;4.55;2.00;;;;;;;;;;5245851;27;20090;-65
2024/04/22 11:08:43;;;;;;;4.70;2.40;;;;;;;;;;5253227;27;20071;-64
2024/04/22 11:11:09;;;;;;;6.65;2.90;;;;;;;;;;5279633;27;20002;-64
2024/04/22 11:13:37;;;;;;;3.92;2.75;;;;;;;;;;5279476;27;20009;-63
2024/04/22 11:16:07;;;;;;;6.13;2.85;;;;;;;;;;5246295;27;19999;-64
2024/04/22 11:18:32;;;;;;;4.35;2.50;;;;;;;;;;5246520;27;20550;-64
2024/04/22 11:20:57;;;;;;;4.57;2.50;;;;;;;;;;5268100;27;20010;-64
2024/04/22 11:23:23;;;;;;;6.65;2.63;;;;;;;;;;5277571;27;20006;-64
2024/04/22 11:25:49;;;;;;;4.00;2.53;;;;;;;;;;5277797;27;19995;-64
2024/04/22 11:28:14;;;;;;;4.90;2.58;;;;;;;;;;5277842;27;20447;-63
2024/04/22 11:30:41;;;;;;;3.83;2.63;;;;;;;;;;5278359;27;20009;-64
2024/04/22 11:33:06;;;;;;;4.00;2.83;;;;;;;;;;5279825;27;20322;-64
2024/04/22 11:35:35;;;;;;;4.85;2.78;;;;;;;;;;5279629;27;20005;-64
2024/04/22 11:38:01;;;;;;;2.63;2.30;;;;;;;;;;5279515;27;20009;-64
2024/04/22 11:40:27;;;;;;;4.63;2.38;;;;;;;;;;5278072;27;19998;-64
2024/04/22 11:42:53;;;;;;;4.65;2.70;;;;;;;;;;5277676;27;20329;-67
2024/04/22 11:45:18;;;;;;;5.18;2.63;;;;;;;;;;5277915;27;20009;-67
2024/04/22 11:47:43;;;;;;;4.25;2.33;;;;;;;;;;5249868;27;20468;-68
2024/04/22 11:50:08;;;;;;;3.65;2.22;;;;;;;;;;5277457;27;20026;-67
2024/04/22 11:52:34;;;;;;;4.05;2.35;;;;;;;;;;5247128;27;20007;-64
2024/04/22 11:54:59;;;;;;;3.30;2.03;;;;;;;;;;5244771;27;20408;-64
2024/04/22 11:57:24;;;;;;;4.05;2.55;;;;;;;;;;5269297;27;20564;-64
2024/04/22 11:59:50;;;;;;;5.97;2.40;;;;;;;;;;5278697;27;20468;-67
2024/04/22 12:02:16;;;;;;;3.85;2.10;;;;;;;;;;5273350;27;20010;-67
2024/04/22 12:04:42;;;;;;;4.70;2.30;;;;;;;;;;5277063;27;20007;-67
2024/04/22 12:07:07;;;;;;;3.38;2.17;;;;;;;;;;5262941;27;20020;-67
2024/04/22 12:09:33;;;;;;;3.15;1.90;;;;;;;;;;5244938;27;20002;-65
2024/04/22 12:11:58;;;;;;;4.85;2.10;;;;;;;;;;5265682;27;20460;-65
2024/04/22 12:14:23;;;;;;;3.92;2.45;;;;;;;;;;5278375;27;19998;-65
2024/04/22 12:16:49;;;;;;;7.65;2.45;;;;;;;;;;5277962;27;19998;-66
2024/04/22 12:19:14;;;;;;;4.88;2.00;;;;;;;;;;5276771;27;20017;-66
2024/04/22 12:21:39;;;;;;;4.45;2.03;;;;;;;;;;5274400;27;20018;-65
2024/04/22 12:24:05;;;;;;;3.33;2.30;;;;;;;;;;5273646;27;20034;-65
2024/04/22 12:26:30;;;;;;;5.80;2.13;;;;;;;;;;5243512;27;20075;-65
2024/04/22 12:28:55;;;;;;;3.20;2.03;;;;;;;;;;5244433;27;20032;-64
2024/04/22 12:31:21;;;;;;;4.80;2.45;;;;;;;;;;5243531;27;20010;-65
2024/04/22 12:33:46;;;;;;;6.07;2.80;;;;;;;;;;5253480;27;19995;-66
2024/04/22 12:36:11;;;;;;;3.45;2.63;;;;;;;;;;5277058;27;20076;-66
2024/04/22 12:38:36;;;;;;;4.82;2.40;;;;;;;;;;5276441;27;19994;-66
2024/04/22 12:41:03;;;;;;;3.83;2.53;;;;;;;;;;5277043;27;19991;-66
2024/04/22 12:43:28;;;;;;;3.63;2.22;;;;;;;;;;5276350;27;20019;-66
2024/04/22 12:45:54;;;;;;;4.10;2.45;;;;;;;;;;5314525;21;20090;-65
2024/04/22 12:51:04;;;;;;;2.97;2.05;;;;;;;;;;5311657;27;20016;-64
2024/04/22 12:53:29;;;;;;;4.97;2.55;;;;;;;;;;5309904;27;20459;-65
2024/04/22 12:55:54;;;;;;;4.80;1.95;;;;;;;;;;5311852;27;20041;-65
2024/04/22 12:58:20;;;;;;;4.97;2.10;;;;;;;;;;5312430;27;20009;-64
2024/04/22 13:00:46;;;;;;;2.92;1.98;;;;;;;;;;5302782;27;19993;-64
2024/04/22 13:03:11;;;;;;;3.38;2.20;;;;;;;;;;5310053;27;20467;-64
2024/04/22 13:05:36;;;;;;;3.90;2.42;;;;;;;;;;5311237;27;20009;-64
2024/04/22 13:08:02;;;;;;;4.78;2.17;;;;;;;;;;5311714;27;20034;-65
2024/04/22 13:10:27;;;;;;;2.50;1.75;;;;;;;;;;5311520;27;20006;-65
2024/04/22 13:12:53;;;;;;;3.05;2.08;;;;;;;;;;5311477;27;20014;-65
2024/04/22 13:15:18;;;;;;;4.10;1.88;;;;;;;;;;5311047;27;20014;-65
2024/04/22 13:17:43;;;;;;;5.63;2.35;;;;;;;;;;5311638;27;20462;-65
2024/04/22 13:20:09;;;;;;;2.70;1.98;;;;;;;;;;5283317;27;20456;-65
2024/04/22 13:22:34;;;;;;;3.20;2.05;;;;;;;;;;5286716;27;20010;-65
2024/04/22 13:25:00;;;;;;;3.65;2.00;;;;;;;;;;5306848;27;20390;-65
2024/04/22 13:27:25;;;;;;;3.20;1.90;;;;;;;;;;5303918;27;20453;-65
2024/04/22 13:29:52;;;;;;;2.90;2.08;;;;;;;;;;5277382;27;19994;-65
2024/04/22 13:32:19;;;;;;;3.67;1.90;;;;;;;;;;5275146;27;20362;-64
2024/04/22 13:34:45;;;;;;;3.83;2.13;;;;;;;;;;5277533;27;20332;-64
2024/04/22 13:37:10;;;;;;;4.30;2.08;;;;;;;;;;5275611;27;19999;-67
2024/04/22 13:39:35;;;;;;;4.13;2.03;;;;;;;;;;5299143;27;20455;-67
2024/04/22 13:42:01;;;;;;;3.60;2.10;;;;;;;;;;5307577;27;19994;-67
2024/04/22 13:44:26;;;;;;;4.05;2.10;;;;;;;;;;5310673;27;20002;-67
2024/04/22 13:46:51;;;;;;;5.50;1.85;;;;;;;;;;5310037;26;20005;-67
2024/04/22 13:49:17;;;;;;;4.80;2.00;;;;;;;;;;5311534;27;20025;-67
2024/04/22 13:51:45;;;;;;;4.47;2.25;;;;;;;;;;5311770;27;20037;-65
2024/04/22 13:54:10;;;;;;;2.88;1.95;;;;;;;;;;5276086;27;20072;-65
2024/04/22 13:56:36;;;;;;;3.08;1.83;;;;;;;;;;5309960;27;20001;-65
2024/04/22 13:59:01;;;;;;;3.72;2.05;;;;;;;;;;5310964;27;20006;-65
2024/04/22 14:01:27;;;;;;;5.05;1.70;;;;;;;;;;5311743;27;20009;-64
2024/04/22 14:03:52;;;;;;;3.58;1.95;;;;;;;;;;5310366;27;20483;-64
2024/04/22 14:06:18;;;;;;;3.10;1.77;;;;;;;;;;5310207;27;19998;-64
2024/04/22 14:08:45;;;;;;;3.05;1.95;;;;;;;;;;5298152;27;20013;-64
2024/04/22 14:11:11;;;;;;;4.15;2.28;;;;;;;;;;5297212;27;19994;-64
2024/04/22 14:13:36;;;;;;;3.47;1.98;;;;;;;;;;5309839;27;19994;-64
2024/04/22 14:16:01;;;;;;;3.47;1.77;;;;;;;;;;5281010;27;19992;-64
2024/04/22 14:18:27;;;;;;;3.08;1.83;;;;;;;;;;5311041;27;20004;-64
2024/04/22 14:20:52;;;;;;;4.75;2.03;;;;;;;;;;5311089;27;20159;-64
2024/04/22 14:23:18;;;;;;;3.65;2.15;;;;;;;;;;5265784;27;20120;-64
2024/04/22 14:25:45;;;;;;;2.65;1.90;;;;;;;;;;5276611;27;20022;-62
2024/04/22 14:28:10;;;;;;;2.42;2.10;;;;;;;;;;5277241;27;20010;-64
2024/04/22 14:30:36;;;;;;;3.25;2.10;;;;;;;;;;5290991;27;20385;-65
2024/04/22 14:33:01;;;;;;;3.83;1.83;;;;;;;;;;5293617;27;20552;-65
2024/04/22 14:35:26;;;;;;;3.58;1.92;;;;;;;;;;5295058;26;19994;-65
2024/04/22 14:37:52;;;;;;;4.75;1.83;;;;;;;;;;5309595;27;20010;-65
2024/04/22 14:40:17;;;;;;;2.33;1.90;;;;;;;;;;5304483;27;20042;-65